Time;durP1;ratioP1;P1;durP2;ratioP2;P2;SDS_P1;SDS_P2;PMS_P1;PMS_P2;Temp;Humidity;BMP_temperature;BMP_pressure;BME280_temperature;BME280_humidity;BME280_pressure;Samples;Min_cycle;Max_cycle;Signal;HPM_P1;HPM_P2
2022/05/29 00:01:33;;;;;;;8.00;3.20;;;13.90;99.90;;;;;;4979612;28;20113;-68
2022/05/29 00:03:59;;;;;;;6.07;3.67;;;13.90;99.90;;;;;;4984708;28;20149;-72
2022/05/29 00:06:25;;;;;;;5.32;3.42;;;14.00;99.90;;;;;;4993511;28;20084;-71
2022/05/29 00:08:51;;;;;;;7.90;3.88;;;14.00;99.90;;;;;;4992730;28;20480;-72
2022/05/29 00:11:17;;;;;;;8.38;3.35;;;14.00;99.90;;;;;;5024562;28;20436;-71
2022/05/29 00:13:44;;;;;;;7.50;3.22;;;14.10;99.90;;;;;;4992884;28;20084;-72
2022/05/29 00:16:10;;;;;;;8.27;3.47;;;14.00;99.90;;;;;;4992813;28;20034;-73
2022/05/29 00:18:37;;;;;;;5.47;3.20;;;13.90;99.90;;;;;;4975781;28;20030;-73
2022/05/29 00:21:05;;;;;;;8.55;3.67;;;13.90;99.90;;;;;;4991182;28;20044;-70
2022/05/29 00:23:35;;;;;;;5.60;3.53;;;13.80;99.90;;;;;;5004233;28;20053;-73
2022/05/29 00:26:01;;;;;;;7.38;4.10;;;13.80;99.90;;;;;;5012355;28;20068;-73
2022/05/29 00:28:26;;;;;;;6.90;3.83;;;13.70;99.90;;;;;;5012277;28;20065;-72
2022/05/29 00:30:53;;;;;;;7.20;4.13;;;13.70;99.90;;;;;;5012520;28;20408;-73
2022/05/29 00:33:19;;;;;;;7.28;4.03;;;13.70;99.90;;;;;;5012363;28;20026;-72
2022/05/29 00:35:45;;;;;;;6.72;3.97;;;13.80;99.90;;;;;;4973889;28;20053;-73
2022/05/29 00:38:13;;;;;;;6.25;4.03;;;13.80;99.90;;;;;;4973329;28;20035;-71
2022/05/29 00:40:48;;;;;;;6.32;3.85;;;13.80;99.90;;;;;;4973345;28;20034;-74
2022/05/29 00:43:14;;;;;;;8.38;3.67;;;13.80;99.90;;;;;;4973330;28;20097;-72
2022/05/29 00:45:48;;;;;;;9.52;4.45;;;13.90;99.90;;;;;;4973296;28;20023;-74
2022/05/29 00:48:18;;;;;;;11.30;4.25;;;13.90;99.90;;;;;;4972302;28;20051;-65
2022/05/29 00:50:47;;;;;;;9.02;4.07;;;14.00;99.90;;;;;;4971724;28;20043;-71
2022/05/29 00:53:15;;;;;;;9.88;4.28;;;14.00;99.90;;;;;;4971544;28;20377;-73
2022/05/29 00:55:45;;;;;;;6.55;4.18;;;13.90;99.90;;;;;;4974273;28;20730;-73
2022/05/29 00:58:11;;;;;;;11.27;4.20;;;13.90;99.90;;;;;;4972919;28;20058;-72
2022/05/29 01:00:38;;;;;;;6.13;3.42;;;13.90;99.90;;;;;;4975550;28;20097;-73
2022/05/29 01:03:05;;;;;;;7.63;3.47;;;13.90;99.90;;;;;;4978407;28;20027;-72
2022/05/29 01:05:33;;;;;;;6.25;3.60;;;13.90;99.90;;;;;;4974860;28;20102;-73
2022/05/29 01:08:05;;;;;;;7.03;3.80;;;14.00;99.90;;;;;;4975315;28;20034;-73
2022/05/29 01:10:49;;;;;;;8.03;4.10;;;14.00;99.90;;;;;;4995043;28;20061;-71
2022/05/29 01:13:35;;;;;;;7.80;4.22;;;14.10;99.90;;;;;;4995725;28;20396;-73
2022/05/29 01:16:09;;;;;;;7.13;3.72;;;14.10;99.90;;;;;;4995644;28;20354;-70
2022/05/29 01:18:45;;;;;;;6.50;3.35;;;14.10;99.90;;;;;;4995725;28;20105;-74
2022/05/29 01:21:34;;;;;;;4.93;3.30;;;14.10;99.90;;;;;;4994945;28;20112;-72
2022/05/29 01:24:32;;;;;;;6.20;3.83;;;14.10;99.90;;;;;;4996411;28;20038;-74
2022/05/29 01:27:11;;;;;;;6.85;3.47;;;14.10;99.90;;;;;;4995000;28;20045;-71
2022/05/29 01:29:57;;;;;;;5.65;3.25;;;14.00;99.90;;;;;;5011858;28;20491;-72
2022/05/29 01:32:51;;;;;;;5.82;3.28;;;14.10;99.90;;;;;;4995444;28;20074;-65
2022/05/29 01:35:35;;;;;;;6.88;3.58;;;14.10;99.90;;;;;;4995676;28;20555;-68
2022/05/29 01:38:22;;;;;;;6.85;3.40;;;14.20;99.90;;;;;;4988735;28;20034;-71
2022/05/29 01:40:57;;;;;;;8.85;3.40;;;14.20;99.90;;;;;;4985470;28;20035;-73
2022/05/29 01:43:29;;;;;;;8.45;3.60;;;14.20;99.90;;;;;;4992684;28;20455;-72
2022/05/29 01:46:10;;;;;;;5.70;2.92;;;14.20;99.90;;;;;;5003986;28;20412;-74
2022/05/29 01:48:54;;;;;;;7.07;4.22;;;14.30;99.90;;;;;;4994630;28;20093;-74
2022/05/29 01:51:23;;;;;;;9.02;4.05;;;14.30;99.90;;;;;;4993658;28;20477;-73
2022/05/29 01:54:09;;;;;;;4.75;3.28;;;14.30;99.90;;;;;;4994467;28;20030;-72
2022/05/29 01:56:45;;;;;;;8.43;3.25;;;14.40;99.90;;;;;;4991444;28;20057;-72
2022/05/29 01:59:16;;;;;;;4.60;2.95;;;14.30;99.90;;;;;;4983556;28;20049;-74
2022/05/29 02:01:47;;;;;;;5.22;3.30;;;14.00;99.90;;;;;;4995413;28;20431;-73
2022/05/29 02:04:18;;;;;;;4.60;3.03;;;14.10;99.90;;;;;;4988821;28;20030;-74
2022/05/29 02:09:40;;;;;;;8.32;3.20;;;13.90;99.90;;;;;;4976425;28;20042;-73
2022/05/29 02:12:10;;;;;;;7.15;3.47;;;13.80;99.90;;;;;;4984749;28;20027;-71
2022/05/29 02:14:40;;;;;;;7.00;2.97;;;13.80;99.90;;;;;;4988235;28;20380;-74
2022/05/29 02:17:13;;;;;;;5.88;3.80;;;13.80;99.90;;;;;;4984474;28;20030;-72
2022/05/29 02:20:18;;;;;;;7.18;4.10;;;13.70;99.90;;;;;;4976830;28;20031;-73
2022/05/29 02:22:48;;;;;;;6.88;3.65;;;13.80;99.90;;;;;;5011367;28;20125;-73
2022/05/29 02:25:22;;;;;;;7.05;4.15;;;13.80;99.90;;;;;;5011560;28;20026;-74
2022/05/29 02:27:54;;;;;;;11.15;3.63;;;13.80;99.90;;;;;;4995211;28;20801;-68
2022/05/29 02:30:24;;;;;;;10.07;3.92;;;13.80;99.90;;;;;;5006302;28;20455;-75
2022/05/29 02:33:13;;;;;;;8.10;4.25;;;13.80;99.90;;;;;;5011800;28;20053;-75
2022/05/29 02:35:56;;;;;;;12.05;4.25;;;13.80;99.90;;;;;;5011747;28;20033;-75
2022/05/29 02:38:22;;;;;;;;;;;13.80;99.90;;;;;;5012144;28;20036;-74
2022/05/29 02:40:59;;;;;;;7.28;3.80;;;13.80;99.90;;;;;;5011560;28;20298;-74
2022/05/29 02:43:34;;;;;;;13.65;4.60;;;13.80;99.90;;;;;;5011731;28;20058;-75
2022/05/29 02:46:31;;;;;;;8.93;3.42;;;13.80;99.90;;;;;;5011798;28;20169;-74
2022/05/29 02:49:13;;;;;;;6.90;3.47;;;13.90;99.90;;;;;;5011441;28;20077;-75
2022/05/29 02:51:50;;;;;;;11.25;3.85;;;13.90;99.90;;;;;;5011750;28;20044;-75
2022/05/29 02:54:28;;;;;;;7.20;3.88;;;13.70;99.90;;;;;;5011430;28;20503;-75
2022/05/29 02:56:56;;;;;;;12.88;4.03;;;13.70;99.90;;;;;;5011478;28;20030;-75
2022/05/29 02:59:48;;;;;;;11.20;4.10;;;13.70;99.90;;;;;;4987095;28;20038;-75
2022/05/29 03:02:41;;;;;;;5.55;3.80;;;13.80;99.90;;;;;;4974605;28;20105;-75
2022/05/29 03:05:20;;;;;;;;;;;13.80;99.90;;;;;;4987977;28;20049;-75
2022/05/29 03:08:26;;;;;;;9.18;4.88;;;13.90;99.90;;;;;;4993963;28;19921;-74
2022/05/29 03:11:07;;;;;;;7.35;4.47;;;13.90;99.90;;;;;;4993182;28;20027;-72
2022/05/29 03:14:04;;;;;;;7.97;4.40;;;13.80;99.90;;;;;;4993314;28;20022;-75
2022/05/29 03:16:50;;;;;;;7.53;3.97;;;13.80;99.90;;;;;;4993066;28;20081;-72
2022/05/29 03:19:35;;;;;;;8.23;3.85;;;13.70;99.90;;;;;;4993562;28;20485;-71
2022/05/29 03:22:26;;;;;;;10.75;4.45;;;13.70;99.90;;;;;;4993073;28;20046;-70
2022/05/29 03:24:58;;;;;;;13.02;4.60;;;13.70;99.90;;;;;;4991194;28;20081;-73
2022/05/29 03:27:45;;;;;;;6.88;4.35;;;13.70;99.90;;;;;;4990981;28;20049;-75
2022/05/29 03:30:31;;;;;;;6.50;4.20;;;13.70;99.90;;;;;;4991293;28;20078;-75
2022/05/29 03:33:01;;;;;;;7.25;4.10;;;13.70;99.90;;;;;;4991354;28;20058;-73
2022/05/29 03:35:26;;;;;;;11.48;5.07;;;13.70;99.90;;;;;;4990839;28;20133;-76
2022/05/29 03:37:53;;;;;;;14.38;5.00;;;13.80;99.90;;;;;;4991140;28;20117;-74
2022/05/29 03:40:20;;;;;;;12.32;4.95;;;13.70;99.90;;;;;;4991220;28;20599;-72
2022/05/29 03:42:46;;;;;;;8.50;5.28;;;13.80;99.90;;;;;;4991043;28;20034;-74
2022/05/29 03:45:12;;;;;;;7.50;4.80;;;13.90;99.90;;;;;;4990641;28;20365;-70
2022/05/29 03:47:39;;;;;;;8.27;4.00;;;13.90;99.90;;;;;;4990632;28;20505;-75
2022/05/29 03:50:08;;;;;;;9.85;4.47;;;13.90;99.90;;;;;;4990602;28;20051;-74
2022/05/29 03:52:34;;;;;;;9.65;4.80;;;13.80;99.90;;;;;;4990814;28;20027;-73
2022/05/29 03:55:01;;;;;;;10.02;4.28;;;13.80;99.90;;;;;;4990667;28;20046;-73
2022/05/29 03:57:28;;;;;;;9.98;4.78;;;13.90;99.90;;;;;;4990636;28;20050;-74
2022/05/29 03:59:53;;;;;;;7.35;4.30;;;13.90;99.90;;;;;;4990666;28;20030;-68
2022/05/29 04:02:19;;;;;;;10.15;4.97;;;14.00;99.90;;;;;;4992262;28;20133;-71
2022/05/29 04:04:45;;;;;;;11.48;5.20;;;14.00;99.90;;;;;;4992515;28;20040;-75
2022/05/29 04:07:11;;;;;;;8.77;4.60;;;14.00;99.90;;;;;;4992869;28;20524;-74
2022/05/29 04:12:21;;;;;;;9.73;5.43;;;14.10;99.90;;;;;;4992718;28;20057;-73
2022/05/29 04:14:47;;;;;;;12.40;5.00;;;14.20;99.90;;;;;;4992617;28;20026;-69
2022/05/29 04:17:18;;;;;;;8.23;4.97;;;14.10;99.90;;;;;;4992851;28;20022;-75
2022/05/29 04:19:47;;;;;;;6.63;4.05;;;14.20;99.90;;;;;;4992240;28;20077;-74
2022/05/29 04:22:21;;;;;;;7.38;4.40;;;14.20;99.90;;;;;;5019840;28;20116;-74
2022/05/29 04:24:47;;;;;;;9.35;5.10;;;14.10;99.90;;;;;;4991735;28;20069;-76
2022/05/29 04:27:15;;;;;;;8.88;4.38;;;14.20;99.90;;;;;;4992758;28;20050;-75
2022/05/29 04:29:41;;;;;;;13.18;4.30;;;14.10;99.90;;;;;;5024011;28;20041;-72
2022/05/29 04:34:54;;;;;;;9.48;4.35;;;14.40;99.90;;;;;;4996383;28;20062;-73
2022/05/29 04:37:20;;;;;;;10.57;4.50;;;14.40;99.90;;;;;;4996494;28;20029;-75
2022/05/29 04:39:46;;;;;;;7.10;4.05;;;14.50;99.90;;;;;;4996100;28;20022;-75
2022/05/29 04:42:12;;;;;;;5.88;3.63;;;14.50;99.90;;;;;;4996320;28;20546;-75
2022/05/29 04:44:38;;;;;;;10.35;3.50;;;14.60;99.90;;;;;;4996229;28;20117;-70
2022/05/29 04:47:04;;;;;;;8.38;3.97;;;14.70;99.90;;;;;;4993653;28;20739;-72
2022/05/29 04:49:31;;;;;;;12.15;3.67;;;14.70;99.90;;;;;;4995762;28;20046;-73
2022/05/29 04:51:57;;;;;;;7.35;3.75;;;14.70;99.90;;;;;;4996271;28;20362;-74
2022/05/29 04:54:24;;;;;;;10.52;3.80;;;14.70;99.90;;;;;;4995746;28;20026;-72
2022/05/29 04:56:50;;;;;;;6.00;3.58;;;14.60;99.90;;;;;;4995928;28;20029;-74
2022/05/29 04:59:16;;;;;;;7.90;3.22;;;14.70;99.90;;;;;;4995313;28;20053;-75
2022/05/29 05:01:42;;;;;;;10.18;3.92;;;14.70;99.90;;;;;;4995915;28;20026;-74
2022/05/29 05:04:08;;;;;;;8.25;3.80;;;14.80;99.90;;;;;;4995784;28;20045;-71
2022/05/29 05:06:34;;;;;;;7.22;3.35;;;14.80;99.90;;;;;;4995916;28;20465;-73
2022/05/29 05:09:01;;;;;;;5.63;3.15;;;14.80;99.90;;;;;;4996097;28;20053;-74
2022/05/29 05:11:27;;;;;;;4.85;3.05;;;14.80;99.90;;;;;;4995436;28;20024;-69
2022/05/29 05:13:53;;;;;;;10.05;3.35;;;14.80;99.90;;;;;;4995858;28;20133;-75
2022/05/29 05:16:18;;;;;;;5.03;3.53;;;14.90;99.90;;;;;;4995567;28;20297;-74
2022/05/29 05:18:44;;;;;;;5.45;3.15;;;15.00;99.90;;;;;;4995700;28;20488;-76
2022/05/29 05:21:10;;;;;;;9.18;4.10;;;14.90;99.90;;;;;;4995615;28;20023;-74
2022/05/29 05:23:36;;;;;;;8.90;3.30;;;14.90;99.90;;;;;;4995388;28;20030;-74
2022/05/29 05:26:09;;;;;;;8.35;3.78;;;14.90;99.90;;;;;;4995530;28;20022;-70
2022/05/29 05:28:35;;;;;;;10.63;4.18;;;14.90;99.90;;;;;;4995556;28;20070;-77
2022/05/29 05:31:01;;;;;;;8.63;4.38;;;14.90;99.90;;;;;;4995505;28;20429;-74
2022/05/29 05:33:27;;;;;;;10.73;3.83;;;14.90;99.90;;;;;;4995373;28;20064;-67
2022/05/29 05:35:53;;;;;;;8.20;4.05;;;14.90;99.90;;;;;;4995024;28;20022;-73
2022/05/29 05:38:19;;;;;;;7.93;4.43;;;15.00;99.90;;;;;;4995228;28;20110;-74
2022/05/29 05:40:44;;;;;;;9.82;4.18;;;15.10;99.90;;;;;;4993872;28;20026;-68
2022/05/29 05:43:10;;;;;;;9.68;4.43;;;15.10;99.90;;;;;;4994372;28;20030;-74
2022/05/29 05:45:41;;;;;;;7.70;3.65;;;15.00;99.90;;;;;;4994779;28;20018;-74
2022/05/29 05:48:07;;;;;;;7.38;4.88;;;15.10;99.90;;;;;;4994660;28;20050;-75
2022/05/29 05:50:33;;;;;;;8.55;4.55;;;15.10;99.90;;;;;;4994811;28;20030;-68
2022/05/29 05:52:59;;;;;;;11.82;5.05;;;15.10;99.90;;;;;;4994606;28;20057;-75
2022/05/29 05:55:25;;;;;;;8.55;3.95;;;15.20;99.90;;;;;;4994987;28;20358;-75
2022/05/29 05:57:53;;;;;;;10.20;4.68;;;15.30;99.90;;;;;;4994778;28;20034;-72
2022/05/29 06:00:19;;;;;;;10.75;4.63;;;15.30;99.90;;;;;;4994665;28;20384;-73
2022/05/29 06:02:46;;;;;;;5.50;3.70;;;15.40;99.90;;;;;;4994785;28;20030;-74
2022/05/29 06:05:14;;;;;;;6.72;3.33;;;15.50;99.90;;;;;;4994689;28;20050;-74
2022/05/29 06:07:40;;;;;;;5.07;4.00;;;15.60;99.90;;;;;;4994375;28;20035;-75
2022/05/29 06:10:08;;;;;;;8.13;3.97;;;15.70;99.90;;;;;;4993642;28;20504;-74
2022/05/29 06:12:34;;;;;;;10.32;4.93;;;15.80;99.90;;;;;;4994052;28;20023;-70
2022/05/29 06:15:00;;;;;;;11.98;4.75;;;15.90;99.90;;;;;;4994175;28;20030;-72
2022/05/29 06:17:30;;;;;;;9.35;4.50;;;15.80;99.90;;;;;;4993949;28;20117;-75
2022/05/29 06:19:56;;;;;;;7.72;4.80;;;15.70;99.90;;;;;;4994105;28;20048;-74
2022/05/29 06:22:21;;;;;;;11.93;4.63;;;15.70;99.90;;;;;;4991724;28;20657;-73
2022/05/29 06:24:47;;;;;;;9.93;4.78;;;15.80;99.90;;;;;;4991640;28;20019;-74
2022/05/29 06:27:13;;;;;;;6.80;4.43;;;15.80;99.90;;;;;;4992656;28;20483;-73
2022/05/29 06:29:39;;;;;;;8.50;4.57;;;15.70;99.90;;;;;;4993395;28;20042;-74
2022/05/29 06:32:08;;;;;;;6.78;4.00;;;15.80;99.90;;;;;;4993295;28;20478;-72
2022/05/29 06:34:35;;;;;;;8.30;4.35;;;15.80;99.90;;;;;;4993420;28;20026;-72
2022/05/29 06:37:06;;;;;;;9.15;4.85;;;15.90;99.90;;;;;;4989472;28;20468;-74
2022/05/29 06:39:34;;;;;;;9.48;4.82;;;15.80;99.90;;;;;;4993298;28;20027;-68
2022/05/29 06:42:00;;;;;;;10.77;5.25;;;15.80;99.90;;;;;;4993197;28;20026;-74
2022/05/29 06:44:26;;;;;;;8.23;4.15;;;15.80;99.90;;;;;;4993750;28;20026;-74
2022/05/29 06:46:52;;;;;;;8.40;4.32;;;15.90;99.90;;;;;;4993451;28;20034;-73
2022/05/29 06:49:18;;;;;;;8.25;4.45;;;16.00;99.90;;;;;;4993299;28;20393;-72
2022/05/29 06:51:44;;;;;;;11.50;4.07;;;16.20;99.90;;;;;;4992847;28;20031;-72
2022/05/29 06:54:10;;;;;;;7.95;4.25;;;16.30;99.90;;;;;;4993027;28;20472;-74
2022/05/29 06:56:36;;;;;;;9.32;4.85;;;16.30;99.90;;;;;;4992176;28;20064;-70
2022/05/29 06:59:05;;;;;;;7.13;4.22;;;16.40;99.90;;;;;;4992531;28;20030;-73
2022/05/29 07:07:07;;;;;;;8.00;4.18;;;16.50;99.90;;;;;;4974142;28;20045;-71
2022/05/29 07:09:36;;;;;;;9.85;4.75;;;16.80;99.90;;;;;;4972798;28;20079;-74
2022/05/29 07:12:10;;;;;;;7.07;4.35;;;16.90;99.90;;;;;;4972985;28;20458;-74
2022/05/29 07:14:44;;;;;;;11.27;4.82;;;16.80;99.90;;;;;;4990004;28;20050;-71
2022/05/29 07:17:11;;;;;;;10.45;4.05;;;16.80;99.90;;;;;;4992381;28;20030;-73
2022/05/29 07:19:37;;;;;;;9.15;4.25;;;16.60;99.90;;;;;;4992502;28;20057;-74
2022/05/29 07:22:03;;;;;;;7.53;4.25;;;16.60;99.90;;;;;;4992262;28;20018;-74
2022/05/29 07:24:32;;;;;;;8.48;4.47;;;16.60;99.90;;;;;;4992591;28;20030;-71
2022/05/29 07:26:58;;;;;;;7.30;4.63;;;16.40;99.90;;;;;;4992124;28;20469;-73
2022/05/29 07:29:24;;;;;;;7.68;4.25;;;16.40;99.90;;;;;;4992119;28;20037;-73
2022/05/29 07:31:52;;;;;;;10.32;4.72;;;16.40;99.90;;;;;;4992210;28;20058;-73
2022/05/29 07:34:18;;;;;;;7.07;4.07;;;16.30;99.90;;;;;;4992547;28;20130;-74
2022/05/29 07:36:44;;;;;;;9.15;4.88;;;16.50;99.90;;;;;;4992511;28;20029;-74
2022/05/29 07:39:11;;;;;;;7.78;4.03;;;16.40;99.90;;;;;;4991314;28;20018;-70
2022/05/29 07:44:22;;;;;;;14.25;6.18;;;16.50;99.90;;;;;;4992287;28;20035;-72
2022/05/29 07:46:48;;;;;;;5.90;3.75;;;16.80;99.90;;;;;;4992287;28;20034;-71
2022/05/29 07:49:14;;;;;;;7.32;4.03;;;16.80;99.90;;;;;;4992347;28;20401;-73
2022/05/29 07:51:40;;;;;;;15.23;5.30;;;16.90;99.90;;;;;;4992465;28;20026;-73
2022/05/29 07:54:06;;;;;;;10.32;4.55;;;16.80;99.90;;;;;;4992110;28;20024;-73
2022/05/29 07:56:32;;;;;;;9.85;4.47;;;16.90;99.90;;;;;;4992587;28;20033;-73
2022/05/29 07:58:57;;;;;;;9.93;4.30;;;16.80;99.90;;;;;;4991799;28;20113;-73
2022/05/29 08:01:23;;;;;;;9.25;4.55;;;17.00;99.90;;;;;;4988881;28;20113;-73
2022/05/29 08:03:49;;;;;;;5.93;3.33;;;17.00;99.90;;;;;;4992842;28;20026;-72
2022/05/29 08:06:15;;;;;;;10.15;4.18;;;16.90;99.90;;;;;;4992795;28;20026;-73
2022/05/29 08:08:41;;;;;;;6.55;3.53;;;16.80;99.90;;;;;;4996450;28;20046;-72
2022/05/29 08:11:08;;;;;;;9.18;4.10;;;16.70;99.90;;;;;;4996690;28;20050;-73
2022/05/29 08:13:35;;;;;;;8.32;4.28;;;16.80;99.90;;;;;;4996306;28;20038;-73
2022/05/29 08:16:02;;;;;;;6.60;3.85;;;16.80;99.90;;;;;;4994887;28;20033;-69
2022/05/29 08:18:28;;;;;;;10.25;4.90;;;16.70;99.90;;;;;;4995717;28;20070;-72
2022/05/29 08:20:55;;;;;;;7.93;4.60;;;16.70;99.90;;;;;;4995019;28;20050;-73
2022/05/29 08:23:21;;;;;;;6.60;4.13;;;17.20;99.90;;;;;;4992679;28;20425;-70
2022/05/29 08:31:16;;;;;;;9.98;4.18;;;17.70;99.90;;;;;;4978237;28;20054;-74
2022/05/29 08:33:43;;;;;;;11.75;4.43;;;17.80;99.90;;;;;;4976007;28;20457;-73
2022/05/29 08:36:15;;;;;;;7.88;4.43;;;17.70;99.90;;;;;;4974770;28;20015;-73
2022/05/29 08:38:44;;;;;;;11.50;7.25;;;17.70;99.90;;;;;;4992383;28;20057;-73
2022/05/29 08:41:18;;;;;;;10.57;6.10;;;17.70;99.90;;;;;;4994726;28;20018;-65
2022/05/29 08:43:51;;;;;;;11.35;6.80;;;18.20;99.90;;;;;;4994331;28;20030;-70
2022/05/29 08:46:20;;;;;;;11.45;7.43;;;18.30;99.90;;;;;;4975890;28;20035;-72
2022/05/29 08:48:48;;;;;;;13.32;8.30;;;18.10;99.90;;;;;;4980167;28;20057;-70
2022/05/29 08:51:37;;;;;;;15.52;9.30;;;18.40;99.90;;;;;;4975465;28;20414;-72
2022/05/29 08:54:24;;;;;;;14.82;8.77;;;18.60;99.90;;;;;;4975142;28;20023;-73
2022/05/29 08:57:13;;;;;;;14.30;8.60;;;19.10;99.90;;;;;;4975636;28;20465;-73
2022/05/29 08:59:56;;;;;;;15.18;10.27;;;19.30;99.90;;;;;;4975496;28;20122;-71
2022/05/29 09:02:40;;;;;;;;;;;19.50;99.90;;;;;;4974830;28;20035;-73
2022/05/29 09:05:42;;;;;;;15.38;9.00;;;20.00;99.90;;;;;;4976150;28;19910;-71
2022/05/29 09:08:23;;;;;;;16.85;11.68;;;20.10;99.90;;;;;;4992673;28;20046;-73
2022/05/29 09:10:59;;;;;;;13.82;9.02;;;20.50;99.90;;;;;;4993212;28;20416;-72
2022/05/29 09:13:37;;;;;;;17.40;10.43;;;20.70;99.90;;;;;;4993147;28;20034;-71
2022/05/29 09:16:13;;;;;;;18.92;12.65;;;20.90;99.90;;;;;;4992972;28;20124;-71
2022/05/29 09:18:43;;;;;;;17.92;12.10;;;21.10;99.90;;;;;;4992649;28;20089;-70
2022/05/29 09:21:15;;;;;;;15.40;10.57;;;21.10;99.90;;;;;;4993489;28;20507;-73
2022/05/29 09:23:49;;;;;;;18.98;11.07;;;20.80;99.90;;;;;;4993373;28;20511;-73
2022/05/29 09:26:21;;;;;;;15.93;11.43;;;20.00;99.90;;;;;;4993620;28;20039;-72
2022/05/29 09:28:47;;;;;;;17.13;11.48;;;19.50;99.90;;;;;;4993452;28;20046;-68
2022/05/29 09:31:20;;;;;;;17.63;10.30;;;20.10;99.90;;;;;;4993142;28;20034;-72
2022/05/29 09:33:47;;;;;;;19.30;11.65;;;20.40;99.90;;;;;;4993168;28;20034;-73
2022/05/29 09:36:45;;;;;;;19.35;10.98;;;20.50;99.90;;;;;;4993129;28;20033;-72
2022/05/29 09:39:41;;;;;;;14.98;10.15;;;20.40;99.90;;;;;;4991196;28;20038;-72
2022/05/29 09:42:19;;;;;;;15.82;10.10;;;20.50;99.90;;;;;;4992575;28;20038;-72
2022/05/29 09:45:06;;;;;;;17.60;10.38;;;20.20;99.90;;;;;;4993239;28;20416;-73
2022/05/29 09:50:19;;;;;;;23.60;13.68;;;20.40;99.90;;;;;;4994618;28;20038;-67
2022/05/29 09:52:46;;;;;;;19.02;12.60;;;20.90;99.90;;;;;;4993912;28;20026;-72
2022/05/29 09:55:22;;;;;;;18.88;12.73;;;21.10;99.90;;;;;;4994529;28;20034;-70
2022/05/29 09:57:51;;;;;;;18.35;12.68;;;21.00;99.90;;;;;;4994479;28;20110;-69
2022/05/29 10:00:36;;;;;;;19.88;11.70;;;21.10;99.30;;;;;;5009526;28;20018;-71
2022/05/29 10:03:09;;;;;;;13.85;9.15;;;20.90;98.60;;;;;;4994324;28;20038;-72
2022/05/29 10:05:41;;;;;;;23.48;11.93;;;21.30;98.10;;;;;;4994380;28;20495;-71
2022/05/29 10:08:25;;;;;;;16.88;11.15;;;21.50;97.70;;;;;;4993960;28;20121;-70
2022/05/29 10:10:51;;;;;;;24.73;12.45;;;21.30;96.80;;;;;;4994315;28;20042;-71
2022/05/29 10:13:35;;;;;;;18.70;11.57;;;21.50;99.40;;;;;;4994335;28;20034;-70
2022/05/29 10:16:01;;;;;;;16.13;11.50;;;21.30;96.10;;;;;;4994178;28;20049;-70
2022/05/29 10:18:35;;;;;;;15.25;10.15;;;21.60;97.40;;;;;;4994232;28;20473;-72
2022/05/29 10:21:33;;;;;;;16.40;9.65;;;21.40;94.20;;;;;;4993820;28;20037;-71
2022/05/29 10:24:21;;;;;;;13.85;8.52;;;20.60;95.30;;;;;;4996043;28;20038;-72
2022/05/29 10:26:53;;;;;;;16.83;9.55;;;20.50;96.80;;;;;;4993907;28;20057;-71
2022/05/29 10:29:20;;;;;;;15.30;8.82;;;20.90;95.80;;;;;;4993153;28;20576;-73
2022/05/29 10:31:50;;;;;;;13.90;9.43;;;21.20;96.40;;;;;;4993252;28;20027;-73
2022/05/29 10:34:29;;;;;;;16.20;10.35;;;20.70;93.90;;;;;;4993681;28;20053;-73
2022/05/29 10:36:56;;;;;;;14.45;8.88;;;20.50;96.10;;;;;;4993575;28;20521;-71
2022/05/29 10:39:31;;;;;;;14.73;9.88;;;20.70;94.20;;;;;;4994067;28;20109;-73
2022/05/29 10:41:58;;;;;;;20.95;11.93;;;20.70;97.00;;;;;;4993575;28;20026;-73
2022/05/29 10:44:44;;;;;;;19.83;11.23;;;21.20;97.80;;;;;;4993717;28;20034;-73
2022/05/29 10:47:16;;;;;;;14.63;9.35;;;21.70;96.00;;;;;;4993395;28;20454;-72
2022/05/29 10:49:54;;;;;;;15.32;10.00;;;21.80;92.90;;;;;;4993441;28;20039;-72
2022/05/29 10:52:52;;;;;;;13.82;7.72;;;21.90;95.90;;;;;;4992700;28;20037;-73
2022/05/29 10:55:40;;;;;;;15.90;7.97;;;21.20;91.10;;;;;;4973649;28;20115;-72
2022/05/29 10:58:24;;;;;;;17.73;10.13;;;21.00;90.50;;;;;;4973617;28;20114;-72
2022/05/29 11:00:50;;;;;;;14.27;8.15;;;21.30;93.60;;;;;;4990864;28;20048;-71
2022/05/29 11:03:41;;;;;;;13.10;7.93;;;21.10;90.70;;;;;;4993153;28;20465;-72
2022/05/29 11:06:33;;;;;;;14.05;8.23;;;20.50;91.10;;;;;;4992762;28;20030;-72
2022/05/29 11:09:42;;;;;;;14.10;7.95;;;20.60;94.30;;;;;;4992530;28;20038;-74
2022/05/29 11:12:43;;;;;;;13.50;8.00;;;20.80;94.60;;;;;;4990594;28;20122;-75
2022/05/29 11:15:20;;;;;;;17.60;9.68;;;20.10;91.90;;;;;;4976810;28;20505;-74
2022/05/29 11:18:06;;;;;;;11.55;7.97;;;20.70;96.20;;;;;;4971498;28;20085;-75
2022/05/29 11:21:13;;;;;;;12.57;7.82;;;21.10;91.20;;;;;;4973571;28;20551;-72
2022/05/29 11:23:45;;;;;;;14.23;8.10;;;21.60;94.40;;;;;;4990937;28;20065;-75
2022/05/29 11:26:23;;;;;;;14.07;8.25;;;21.20;91.90;;;;;;4990920;28;20547;-75
2022/05/29 11:29:24;;;;;;;14.00;9.48;;;21.10;91.20;;;;;;4990544;28;20062;-75
2022/05/29 11:32:04;;;;;;;14.40;8.73;;;21.30;93.80;;;;;;4951555;29;20367;-76
2022/05/29 11:34:44;;;;;;;13.30;9.27;;;21.80;91.30;;;;;;4951872;28;20553;-75
2022/05/29 11:37:53;;;;;;;15.55;10.07;;;21.80;89.30;;;;;;4951518;29;20482;-72
2022/05/29 11:40:32;;;;;;;12.25;8.75;;;21.70;90.70;;;;;;4948586;29;20046;-73
2022/05/29 11:43:23;;;;;;;13.55;9.13;;;21.50;90.60;;;;;;4951148;29;20031;-73
2022/05/29 11:51:49;;;;;;;13.73;9.13;;;21.30;90.20;;;;;;4969942;28;20485;-73
2022/05/29 11:54:39;;;;;;;12.38;8.30;;;21.10;91.10;;;;;;4969690;28;20038;-72
2022/05/29 11:57:15;;;;;;;11.05;7.63;;;21.10;92.70;;;;;;4971013;28;20121;-74
2022/05/29 11:59:54;;;;;;;12.00;7.20;;;20.60;91.90;;;;;;4970724;28;20509;-74
2022/05/29 12:02:27;;;;;;;14.13;7.47;;;20.60;92.50;;;;;;4965523;28;20117;-72
2022/05/29 12:05:11;;;;;;;;;;;20.70;90.70;;;;;;4972353;28;20038;-73
2022/05/29 12:08:01;;;;;;;10.40;6.72;;;20.10;90.80;;;;;;4992246;28;19916;-73
2022/05/29 12:10:34;;;;;;;14.20;8.40;;;20.30;94.00;;;;;;4992263;28;20049;-72
2022/05/29 12:13:07;;;;;;;15.32;7.95;;;20.50;91.30;;;;;;4992249;28;20026;-73
2022/05/29 12:15:33;;;;;;;13.27;7.75;;;20.60;92.30;;;;;;4992309;28;20018;-73
2022/05/29 12:18:09;;;;;;;18.13;10.48;;;20.80;94.10;;;;;;4992041;28;20068;-72
2022/05/29 12:21:00;;;;;;;10.82;6.38;;;21.10;97.30;;;;;;4992011;28;20114;-69
2022/05/29 12:23:25;;;;;;;16.23;9.95;;;21.10;89.80;;;;;;4991115;28;20049;-72
2022/05/29 12:26:06;;;;;;;56.10;36.20;;;21.50;92.60;;;;;;4991961;28;20022;-72
2022/05/29 12:28:52;;;;;;;83.25;50.97;;;20.70;89.60;;;;;;4992180;28;20038;-71
2022/05/29 12:31:35;;;;;;;10.82;6.57;;;20.50;92.30;;;;;;4992236;28;20022;-71
2022/05/29 12:34:01;;;;;;;10.82;7.90;;;20.80;91.40;;;;;;5007515;28;20042;-71
2022/05/29 12:36:57;;;;;;;17.25;10.88;;;21.10;92.90;;;;;;4992019;28;20023;-72
2022/05/29 12:39:25;;;;;;;200.50;121.50;;;21.00;91.90;;;;;;4992322;28;20458;-72
2022/05/29 12:42:28;;;;;;;83.95;44.70;;;20.20;93.40;;;;;;4992419;28;20484;-72
2022/05/29 12:45:31;;;;;;;37.80;21.35;;;20.30;95.20;;;;;;4992042;28;20507;-71
2022/05/29 12:48:18;;;;;;;;;;;20.50;95.90;;;;;;4992378;28;20046;-72
2022/05/29 12:51:04;;;;;;;19.48;9.90;;;21.00;91.80;;;;;;4992216;28;19940;-72
2022/05/29 12:53:48;;;;;;;8.20;5.80;;;21.00;92.10;;;;;;4992378;28;20022;-72
2022/05/29 12:56:35;;;;;;;35.67;20.02;;;21.30;90.80;;;;;;4995415;28;20116;-71
2022/05/29 12:59:19;;;;;;;41.78;22.25;;;20.80;92.90;;;;;;4995745;28;20205;-73
2022/05/29 13:02:35;;;;;;;34.95;17.70;;;20.60;93.10;;;;;;4995367;28;20555;-71
2022/05/29 13:05:42;;;;;;;10.65;7.35;;;20.20;92.60;;;;;;4973229;28;20031;-64
2022/05/29 13:08:44;;;;;;;19.20;11.65;;;20.00;95.00;;;;;;4972983;28;20157;-72
2022/05/29 13:11:10;;;;;;;14.23;7.10;;;20.10;93.80;;;;;;4973324;28;20513;-70
2022/05/29 13:13:43;;;;;;;11.38;6.57;;;20.30;94.30;;;;;;4972833;28;20276;-69
2022/05/29 13:16:33;;;;;;;13.90;6.32;;;20.40;93.80;;;;;;4972899;28;20490;-71
2022/05/29 13:21:51;;;;;;;8.13;5.93;;;20.70;95.40;;;;;;4973080;28;20044;-69
2022/05/29 13:24:17;;;;;;;12.07;6.68;;;20.70;93.90;;;;;;4972965;28;20039;-70
2022/05/29 13:26:43;;;;;;;13.27;6.47;;;20.90;96.20;;;;;;4973430;28;20105;-71
2022/05/29 13:29:37;;;;;;;10.68;6.68;;;21.20;94.40;;;;;;4973052;28;20500;-68
2022/05/29 13:32:14;;;;;;;9.65;5.88;;;21.40;93.60;;;;;;4973388;28;20121;-72
2022/05/29 13:34:51;;;;;;;11.00;6.15;;;21.30;93.00;;;;;;4975802;28;20042;-71
2022/05/29 13:37:32;;;;;;;16.75;6.15;;;21.30;93.10;;;;;;4994632;28;20118;-69
2022/05/29 13:40:05;;;;;;;10.43;6.43;;;21.10;93.10;;;;;;4995122;28;20425;-72
2022/05/29 13:42:32;;;;;;;10.30;6.82;;;21.10;95.00;;;;;;4995054;28;20022;-66
2022/05/29 13:44:58;;;;;;;9.68;6.30;;;21.40;97.30;;;;;;4994517;28;20069;-69
2022/05/29 13:47:29;;;;;;;11.00;7.32;;;21.70;92.80;;;;;;4994572;28;20108;-68
2022/05/29 13:50:00;;;;;;;11.93;6.57;;;22.00;95.30;;;;;;4994594;28;20500;-69